Athens Eleftherios, Greece

12:30 PM EEST on September 03, 2015 (GMT +0300)
Agios Nikolaos, Spata-19004, Athens (GR) | | Change Station
CLOSE
Current Station
Personal Weather Station
Location: Σπάτα, Αττική
Elevation: 446 ft
Nearby Weather Stations

Elev 446 ft 37.98 °N, 23.90 °E | Updated 20 seconds ago

Partly Cloudy
Partly Cloudy
90.0 °F
Feels Like 92 °F
N
4.0
Wind Variable Wind from East
Gusts 8.0 mph

Today
High -- | Low -- °F
--% Chance of Precip.
Yesterday
High -- | Low -- °F
Precip. -- in
6:55 AM 7:51 PM
Waning Gibbous, 72% visible
Pressure 29.86 in
Visibility 6.2 miles
Clouds Few 2000 ft
Heat Index 92 °F
Dew Point 65 °F
Humidity 44%
Rainfall 0.00 in
Snow Depth Not available.
UV 7.0 out of 12
Pollen Not available.
Air Quality Not available.
Flu Activity Not available.
METAR LGAV 030920Z 08006KT 040V140 9999 FEW020 30/18 Q1011 NOSIG
Pressure 29.86 in
Visibility 6.2 miles
Clouds Few 2000 ft
Heat Index 92 °F
Dew Point 65 °F
Humidity 44%
Rainfall 0.00 in
Snow Depth Not available.
UV 7.0 out of 12
Pollen Not available.
Air Quality Not available.
Flu Activity Not available.
METAR LGAV 030920Z 08006KT 040V140 9999 FEW020 30/18 Q1011 NOSIG

10-Day Weather Forecast

×

Almanac

Astronomy

Sep. 03, 2015 Rise Set
Actual Time
Civil Twilight
Nautical Twilight
Astronomical Twilight
Moon
Length of Visible Light
Length of Day
Tomorrow will be .
, % of the Moon is Illuminated

Today's Extremes

Country Highs Country Lows

Community

WunderPhotos

Upload Photos

1,851,923 photos uploaded!

WunderBlogs® & News

Nearby

Air Quality

  Air Quality AQ Index Pollutant
Not available.

Snow Depth

Station Depth Elevation

Earthquake Activity

City Distance Mag. Time & Date
Minimum magnitude displayed is 2.5.

Coastal Water Temperatures

Place Temperature

Stations

Nearby Weather Stations

Station Location Temp. Windchill Dew Point Humidity Wind Precip. Elev Updated Type